Time;durP1;ratioP1;P1;durP2;ratioP2;P2;SDS_P1;SDS_P2;PMS_P1;PMS_P2;Temp;Humidity;BMP_temperature;BMP_pressure;BME280_temperature;BME280_humidity;BME280_pressure;Samples;Min_cycle;Max_cycle;Signal;HPM_P1;HPM_P2
2021/10/06 00:01:05;;;;;;;;;2.67;1.00;;;;;14.79;nan;100858.97;4869334;29;45506;-82
2021/10/06 00:03:30;;;;;;;;;1.00;1.00;;;;;14.71;nan;100847.38;4870359;29;45609;-82
2021/10/06 00:05:56;;;;;;;;;0.00;0.00;;;;;14.75;nan;100869.69;4870179;29;45412;-82
2021/10/06 00:08:21;;;;;;;;;0.67;0.67;;;;;14.73;nan;100875.06;4868617;29;46951;-82
2021/10/06 00:10:47;;;;;;;;;2.67;0.00;;;;;14.75;nan;100875.06;4870069;29;45431;-83
2021/10/06 00:13:14;;;;;;;;;0.00;0.00;;;;;14.75;nan;100867.03;4869714;29;45625;-82
2021/10/06 00:15:41;;;;;;;;;1.00;1.00;;;;;14.75;nan;100875.94;4872070;28;45434;-82
2021/10/06 00:18:07;;;;;;;;;0.00;0.00;;;;;14.73;nan;100883.09;4854275;29;46924;-82
2021/10/06 00:20:34;;;;;;;;;0.33;0.33;;;;;14.82;nan;100879.50;4870388;29;45423;-81
2021/10/06 00:22:59;;;;;;;;;2.33;2.00;;;;;14.65;nan;100875.97;4870747;29;45447;-83
2021/10/06 00:25:25;;;;;;;;;1.33;0.00;;;;;14.66;nan;100872.38;4871528;29;45467;-83
2021/10/06 00:27:51;;;;;;;;;0.00;0.00;;;;;14.71;nan;100889.34;4871116;29;47166;-83
2021/10/06 00:30:16;;;;;;;;;2.00;1.00;;;;;14.65;nan;100882.19;4871109;29;45547;-82
2021/10/06 00:32:43;;;;;;;;;2.00;1.00;;;;;14.59;nan;100883.09;4872829;28;45271;-83
2021/10/06 00:35:08;;;;;;;;;2.00;1.00;;;;;14.60;nan;100895.59;4873840;29;45363;-82
2021/10/06 00:37:34;;;;;;;;;4.00;1.00;;;;;14.66;nan;100904.50;4854229;29;48535;-82
2021/10/06 00:40:03;;;;;;;;;2.67;1.33;;;;;14.79;nan;100898.25;4871164;29;45774;-82
2021/10/06 00:42:28;;;;;;;;;1.00;1.00;;;;;14.73;nan;100909.84;4850085;29;45641;-82
2021/10/06 00:44:54;;;;;;;;;1.00;1.00;;;;;14.77;nan;100918.78;4854353;29;44827;-82
2021/10/06 00:47:19;;;;;;;;;1.00;1.00;;;;;14.82;nan;100919.66;4853924;29;47657;-81
2021/10/06 00:49:47;;;;;;;;;1.00;1.00;;;;;14.91;nan;100911.63;4854999;29;45292;-83
2021/10/06 00:52:19;;;;;;;;;1.33;1.33;;;;;14.85;nan;100925.03;4855046;29;45798;-82
2021/10/06 00:54:44;;;;;;;;;1.00;1.00;;;;;14.81;nan;100917.88;4838383;29;45461;-82
2021/10/06 00:57:11;;;;;;;;;2.33;1.00;;;;;14.82;nan;100925.00;4838056;29;47100;-82
2021/10/06 00:59:37;;;;;;;;;0.00;0.00;;;;;14.79;nan;100922.34;4855236;29;44794;-82
2021/10/06 01:02:03;;;;;;;;;1.00;1.00;;;;;14.73;nan;100915.22;4837281;29;45430;-82
2021/10/06 01:04:29;;;;;;;;;2.00;1.00;;;;;14.63;nan;100915.22;4853046;29;45408;-82
2021/10/06 01:06:55;;;;;;;;;0.67;0.67;;;;;14.64;nan;100919.66;4848857;29;47304;-82
2021/10/06 01:09:26;;;;;;;;;1.00;1.00;;;;;14.76;nan;100930.38;4850574;29;45422;-82
2021/10/06 01:11:52;;;;;;;;;1.00;1.00;;;;;14.58;nan;100926.81;4866674;29;45822;-82
2021/10/06 01:14:24;;;;;;;;;1.67;1.67;;;;;14.73;nan;100917.00;4868094;29;45437;-82
2021/10/06 01:16:52;;;;;;;;;0.33;0.33;;;;;14.61;nan;100928.59;4868035;29;45719;-82
2021/10/06 01:19:29;;;;;;;;;1.67;0.00;;;;;14.71;nan;100932.16;4868014;29;45458;-82
2021/10/06 01:21:57;;;;;;;;;1.00;1.00;;;;;14.69;nan;100924.13;4868118;29;45340;-82
2021/10/06 01:24:25;;;;;;;;;1.33;0.33;;;;;14.78;nan;100939.28;4867458;29;45527;-81
2021/10/06 01:26:50;;;;;;;;;0.00;0.00;;;;;14.71;nan;100926.81;4852093;29;47185;-83
2021/10/06 01:29:20;;;;;;;;;1.00;1.00;;;;;14.84;nan;100936.63;4869451;29;45462;-82
2021/10/06 01:31:47;;;;;;;;;1.00;1.00;;;;;14.74;nan;100932.16;4867936;29;45374;-82
2021/10/06 01:34:15;;;;;;;;;1.67;0.67;;;;;14.62;nan;100926.81;4868382;29;45595;-83
2021/10/06 01:36:40;;;;;;;;;2.00;2.00;;;;;14.60;nan;100935.75;4870122;29;45498;-83
2021/10/06 01:39:09;;;;;;;;;3.00;1.33;;;;;14.77;nan;100948.22;4868947;29;45423;-82
2021/10/06 01:41:36;;;;;;;;;1.33;1.33;;;;;14.72;nan;100944.66;4868567;29;45876;-82
2021/10/06 01:44:02;;;;;;;;;0.67;0.33;;;;;14.65;nan;100929.50;4853368;29;45635;-81
2021/10/06 01:46:28;;;;;;;;;0.00;0.00;;;;;14.70;nan;100946.44;4867574;29;47145;-81
2021/10/06 01:48:54;;;;;;;;;1.67;1.67;;;;;14.54;nan;100926.75;4868860;29;45993;-83
2021/10/06 01:51:19;;;;;;;;;3.00;1.67;;;;;14.63;nan;100950.03;4871081;29;45489;-83
2021/10/06 01:53:45;;;;;;;;;0.67;0.67;;;;;14.64;nan;100954.47;4853934;29;45470;-82
2021/10/06 01:56:10;;;;;;;;;1.67;1.67;;;;;14.62;nan;100950.88;4868925;29;46811;-83
2021/10/06 01:58:36;;;;;;;;;2.00;2.00;;;;;14.50;nan;100952.66;4869211;29;45438;-82
2021/10/06 02:01:02;;;;;;;;;1.00;1.00;;;;;14.42;nan;100946.38;4853934;29;45493;-83
2021/10/06 02:03:34;;;;;;;;;1.67;1.00;;;;;14.45;nan;100946.38;4870361;29;45506;-83
2021/10/06 02:05:59;;;;;;;;;2.00;0.67;;;;;14.42;nan;100941.00;4872033;29;45456;-82
2021/10/06 02:08:25;;;;;;;;;2.00;0.00;;;;;14.43;nan;100952.63;4873005;29;45720;-82
2021/10/06 02:10:50;;;;;;;;;1.00;0.67;;;;;14.41;nan;100939.25;4856370;29;45434;-83
2021/10/06 02:13:16;;;;;;;;;1.00;1.00;;;;;14.40;nan;100948.16;4871511;29;45510;-82
2021/10/06 02:15:41;;;;;;;;;2.00;2.00;;;;;14.37;nan;100938.34;4871083;29;47538;-81
2021/10/06 02:18:08;;;;;;;;;1.67;0.00;;;;;14.42;nan;100951.72;4873806;29;44787;-82
2021/10/06 02:20:34;;;;;;;;;0.33;0.33;;;;;14.47;nan;100967.81;4875961;29;45435;-81
2021/10/06 02:23:00;;;;;;;;;2.00;1.00;;;;;14.30;nan;100946.34;4875951;29;45393;-82
2021/10/06 02:25:25;;;;;;;;;0.67;0.67;;;;;14.30;nan;100957.03;4874888;29;45523;-82
2021/10/06 02:27:51;;;;;;;;;1.33;1.33;;;;;14.29;nan;100961.50;4859740;29;44963;-81
2021/10/06 02:30:16;;;;;;;;;2.00;0.33;;;;;14.27;nan;100959.72;4857820;29;45202;-82
2021/10/06 02:32:45;;;;;;;;;1.00;1.00;;;;;14.25;nan;100958.84;4876231;29;45426;-82
2021/10/06 02:35:11;;;;;;;;;0.33;0.00;;;;;14.23;nan;100955.25;4876081;29;45189;-82
2021/10/06 02:37:39;;;;;;;;;2.00;0.67;;;;;14.28;nan;100953.47;4875043;28;46070;-82
2021/10/06 02:40:07;;;;;;;;;1.00;1.00;;;;;14.27;nan;100973.09;4875932;29;45548;-82
2021/10/06 02:42:32;;;;;;;;;1.33;1.00;;;;;14.12;nan;100958.81;4876189;29;45524;-82
2021/10/06 02:44:58;;;;;;;;;0.00;0.00;;;;;14.20;nan;100967.75;4873407;29;46703;-82
2021/10/06 02:47:24;;;;;;;;;0.67;0.67;;;;;14.17;nan;100966.84;4874569;29;45443;-82
2021/10/06 02:49:49;;;;;;;;;1.00;1.00;;;;;14.10;nan;100970.38;4874180;29;45403;-82
2021/10/06 02:52:17;;;;;;;;;3.00;3.00;;;;;14.11;nan;100970.38;4873805;29;45316;-82
2021/10/06 02:54:43;;;;;;;;;2.00;1.00;;;;;14.06;nan;100964.13;4859017;29;46860;-81
2021/10/06 02:57:15;;;;;;;;;2.00;1.00;;;;;14.05;nan;100967.69;4854476;29;45355;-82
2021/10/06 02:59:46;;;;;;;;;1.00;1.00;;;;;14.14;nan;100981.09;4837065;29;45453;-82
2021/10/06 03:02:26;;;;;;;;;2.00;0.67;;;;;14.18;nan;100977.53;4852531;29;45485;-82
2021/10/06 03:04:55;;;;;;;;;1.00;1.00;;;;;13.99;nan;100962.31;4836216;29;47104;-82
2021/10/06 03:07:23;;;;;;;;;0.00;0.00;;;;;13.83;nan;100960.47;4853132;29;45600;-81
2021/10/06 03:09:56;;;;;;;;;3.00;1.67;;;;;13.79;nan;100955.13;4852746;29;44837;-81
2021/10/06 03:12:32;;;;;;;;;2.67;1.00;;;;;13.94;nan;100964.09;4836427;29;45420;-82
2021/10/06 03:15:00;;;;;;;;;3.00;1.67;;;;;13.97;nan;101005.09;4852889;29;45729;-82
2021/10/06 03:17:29;;;;;;;;;1.33;1.00;;;;;14.01;nan;100992.63;4836197;29;45531;-82
2021/10/06 03:20:00;;;;;;;;;1.33;0.00;;;;;13.85;nan;100985.44;4856633;29;45459;-82
2021/10/06 03:22:25;;;;;;;;;1.00;1.00;;;;;13.97;nan;101004.19;4836110;29;45509;-82
2021/10/06 03:24:53;;;;;;;;;1.67;0.00;;;;;13.90;nan;100973.88;4851712;29;47084;-82
2021/10/06 03:27:31;;;;;;;;;0.67;0.67;;;;;13.85;nan;100969.38;4852435;29;45415;-82
2021/10/06 03:30:06;;;;;;;;;;;;;;;;;;;;;
2021/10/06 03:32:50;;;;;;;;;0.00;0.00;;;;;14.15;nan;101001.59;4852531;29;65029;-82
2021/10/06 03:35:21;;;;;;;;;1.00;1.00;;;;;13.75;nan;100985.38;4852302;29;46683;-82
2021/10/06 03:37:53;;;;;;;;;1.00;1.00;;;;;13.65;nan;100962.16;4850870;29;45505;-83
2021/10/06 03:40:19;;;;;;;;;3.00;1.00;;;;;13.64;nan;100972.88;4851255;29;45494;-82
2021/10/06 03:42:44;;;;;;;;;2.00;0.67;;;;;13.86;nan;101008.63;4851284;29;45884;-82
2021/10/06 03:45:36;;;;;;;;;1.00;1.00;;;;;13.90;nan;101000.63;4851136;29;46768;-82
2021/10/06 03:48:13;;;;;;;;;2.33;1.00;;;;;13.99;nan;101030.06;4838971;29;45459;-82
2021/10/06 03:50:39;;;;;;;;;0.33;0.33;;;;;13.59;nan;100984.44;4837519;29;44868;-82
2021/10/06 03:53:07;;;;;;;;;0.67;0.67;;;;;13.96;nan;101026.50;4838414;29;45590;-82
2021/10/06 03:55:52;;;;;;;;;0.33;0.33;;;;;13.98;nan;101030.06;4854119;29;47322;-82
2021/10/06 03:58:27;;;;;;;;;1.00;1.00;;;;;13.62;nan;101002.25;4852311;29;45885;-82
2021/10/06 04:00:55;;;;;;;;;0.00;0.00;;;;;13.74;nan;101023.69;4851855;29;45381;-83
2021/10/06 04:03:21;;;;;;;;;0.00;0.00;;;;;13.79;nan;101035.31;4852268;29;44828;-82
2021/10/06 04:05:47;;;;;;;;;1.33;1.33;;;;;13.68;nan;101025.44;4851819;29;46869;-82
2021/10/06 04:08:13;;;;;;;;;1.00;1.00;;;;;13.79;nan;101038.00;4852775;29;45560;-82
2021/10/06 04:10:38;;;;;;;;;4.00;1.00;;;;;13.77;nan;101036.19;4851791;29;45508;-82
2021/10/06 04:13:04;;;;;;;;;0.00;0.00;;;;;13.80;nan;101047.78;4851693;29;45469;-82
2021/10/06 04:15:29;;;;;;;;;2.00;2.00;;;;;13.86;nan;101062.09;4851493;29;47239;-82
2021/10/06 04:17:58;;;;;;;;;1.00;1.00;;;;;13.83;nan;101062.06;4853578;29;46019;-82
2021/10/06 04:20:23;;;;;;;;;1.00;1.00;;;;;13.77;nan;101053.09;4838102;29;44798;-82
2021/10/06 04:22:49;;;;;;;;;2.00;1.00;;;;;13.84;nan;101069.22;4855795;29;45578;-82
2021/10/06 04:25:14;;;;;;;;;0.00;0.00;;;;;13.83;nan;101062.06;4838956;29;47698;-82
2021/10/06 04:27:40;;;;;;;;;0.33;0.33;;;;;13.77;nan;101058.44;4853318;29;45220;-82
2021/10/06 04:30:07;;;;;;;;;0.67;0.67;;;;;13.88;nan;101065.66;4852423;29;45553;-82
2021/10/06 04:32:32;;;;;;;;;0.00;0.00;;;;;13.74;nan;101046.88;4852110;29;44722;-82
2021/10/06 04:38:23;;;;;;;;;0.00;0.00;;;;;13.85;nan;101050.47;4852999;29;45489;-82
2021/10/06 04:40:49;;;;;;;;;2.00;1.00;;;;;13.71;nan;101045.03;4850767;29;45391;-83
2021/10/06 04:43:14;;;;;;;;;0.00;0.00;;;;;13.70;nan;101045.06;4851302;29;45340;-83
2021/10/06 04:45:40;;;;;;;;;0.00;0.00;;;;;13.69;nan;101051.28;4834536;29;47841;-83
2021/10/06 04:48:05;;;;;;;;;1.00;1.00;;;;;13.69;nan;101060.19;4850719;29;45518;-83
2021/10/06 04:50:31;;;;;;;;;1.33;1.33;;;;;13.72;nan;101070.91;4851257;29;45510;-83
2021/10/06 04:52:57;;;;;;;;;1.00;1.00;;;;;13.74;nan;101074.50;4835787;29;45455;-82
2021/10/06 04:55:23;;;;;;;;;0.33;0.33;;;;;13.74;nan;101078.94;4836223;29;46673;-82
2021/10/06 04:57:50;;;;;;;;;1.00;1.00;;;;;13.84;nan;101069.22;4852105;29;45424;-83
2021/10/06 05:00:16;;;;;;;;;2.00;1.00;;;;;13.75;nan;101084.28;4835398;29;45381;-83
2021/10/06 05:02:41;;;;;;;;;1.00;1.00;;;;;13.77;nan;101101.22;4851314;29;45476;-82
2021/10/06 05:05:08;;;;;;;;;1.00;0.33;;;;;13.85;nan;101081.69;4851592;29;47181;-82
2021/10/06 05:07:33;;;;;;;;;0.33;0.33;;;;;13.74;nan;101095.88;4851737;29;44910;-82
2021/10/06 05:09:59;;;;;;;;;4.67;0.33;;;;;13.73;nan;101094.06;4835584;29;45481;-83
2021/10/06 05:12:27;;;;;;;;;0.33;0.33;;;;;13.72;nan;101092.28;4850941;29;45377;-83
2021/10/06 05:14:55;;;;;;;;;1.00;1.00;;;;;13.74;nan;101089.63;4850869;29;45455;-83
2021/10/06 05:17:20;;;;;;;;;2.33;1.33;;;;;13.74;nan;101106.56;4860023;29;45917;-82
2021/10/06 05:19:56;;;;;;;;;1.67;1.00;;;;;13.73;nan;101090.50;4868346;29;45398;-82
2021/10/06 05:26:28;;;;;;;;;;;;;;;;;;;;;
2021/10/06 05:29:07;;;;;;;;;1.00;1.00;;;;;13.88;nan;101113.78;4870214;29;74570;-83
2021/10/06 05:32:05;;;;;;;;;2.00;1.00;;;;;13.77;nan;101093.19;4870425;29;45442;-83
2021/10/06 05:34:47;;;;;;;;;1.33;1.33;;;;;13.60;nan;101084.19;4869725;29;45662;-82
2021/10/06 05:37:12;;;;;;;;;1.00;1.00;;;;;13.70;nan;101142.16;4870498;29;46860;-83
2021/10/06 05:40:10;;;;;;;;;2.00;2.00;;;;;13.87;nan;101128.03;4871031;29;45473;-83
2021/10/06 05:42:47;;;;;;;;;1.00;1.00;;;;;13.80;nan;101127.09;4870069;29;45370;-83
2021/10/06 05:45:21;;;;;;;;;3.00;2.67;;;;;13.45;nan;101109.00;4852579;29;45574;-83
2021/10/06 05:47:53;;;;;;;;;3.00;1.00;;;;;13.63;nan;101140.31;4857507;29;47743;-84
2021/10/06 05:50:19;;;;;;;;;1.00;1.00;;;;;13.68;nan;101154.63;4874162;29;45360;-83
2021/10/06 05:52:44;;;;;;;;;2.00;2.00;;;;;13.62;nan;101151.91;4856835;29;45962;-83
2021/10/06 05:55:13;;;;;;;;;2.00;2.00;;;;;13.67;nan;101162.63;4875093;29;44785;-83
2021/10/06 05:57:38;;;;;;;;;2.33;2.33;;;;;13.62;nan;101151.91;4874525;29;46805;-83
2021/10/06 06:00:05;;;;;;;;;2.33;1.00;;;;;13.72;nan;101163.56;4874562;29;45402;-82
2021/10/06 06:02:45;;;;;;;;;2.00;2.00;;;;;13.86;nan;101150.31;4858916;29;45473;-83
2021/10/06 06:05:11;;;;;;;;;3.00;2.00;;;;;13.72;nan;101160.91;4876301;29;44911;-82
2021/10/06 06:07:40;;;;;;;;;4.00;1.67;;;;;13.73;nan;101157.34;4876656;28;47437;-83
2021/10/06 06:10:19;;;;;;;;;3.33;1.67;;;;;13.83;nan;101134.25;4876440;29;44861;-83
2021/10/06 06:16:14;;;;;;;;;3.00;2.00;;;;;13.88;nan;101154.78;4877274;29;44920;-82
2021/10/06 06:19:32;;;;;;;;;1.00;1.00;;;;;13.98;nan;101156.63;4855462;29;46878;-82
2021/10/06 06:22:04;;;;;;;;;2.00;1.00;;;;;13.68;nan;101106.53;4818272;29;45445;-83
2021/10/06 06:24:34;;;;;;;;;2.00;1.67;;;;;13.76;nan;101138.66;4855829;29;45483;-83
2021/10/06 06:27:08;;;;;;;;;1.33;1.33;;;;;13.72;nan;101118.13;4842155;29;44949;-83
2021/10/06 06:33:59;;;;;;;;;;;;;;;;;;;;;
2021/10/06 06:36:30;;;;;;;;;3.67;3.67;;;;;13.71;nan;101130.59;4857717;29;68019;-84
2021/10/06 06:39:02;;;;;;;;;1.00;1.00;;;;;13.94;nan;101143.25;4843815;29;45401;-83
2021/10/06 06:42:32;;;;;;;;;;;;;;;;;;;;;
2021/10/06 06:45:34;;;;;;;;;3.00;2.00;;;;;14.15;nan;101170.09;4783875;29;72322;-84
2021/10/06 06:52:27;;;;;;;;;;;;;;;;;;;;;
2021/10/06 06:55:19;;;;;;;;;1.00;1.00;;;;;14.14;nan;101162.09;4761808;29;73710;-84
2021/10/06 06:58:17;;;;;;;;;2.67;1.67;;;;;14.09;nan;101155.81;4773599;29;44834;-84
2021/10/06 07:01:21;;;;;;;;;;;;;;;;;;;;;
2021/10/06 07:04:02;;;;;;;;;1.67;1.67;;;;;14.24;nan;101197.78;4755359;29;64660;-86
2021/10/06 07:07:13;;;;;;;;;2.00;0.67;;;;;14.19;nan;101169.25;4755390;29;45319;-83
2021/10/06 07:10:51;;;;;;;;;;;;;;;;;;;;;
2021/10/06 07:20:20;;;;;;;;;3.00;1.00;;;;;14.64;nan;101227.50;4786799;29;45363;-82
2021/10/06 07:23:43;;;;;;;;;1.00;1.00;;;;;14.72;nan;101204.34;4787399;29;44931;-83
2021/10/06 07:26:29;;;;;;;;;1.00;1.00;;;;;14.92;nan;101234.78;4768710;29;45437;-83
2021/10/06 07:32:58;;;;;;;;;2.00;2.00;;;;;14.80;nan;101175.81;4783467;29;45389;-84
2021/10/06 07:49:10;;;;;;;;;1.67;1.67;;;;;15.50;nan;101238.53;4792454;29;45482;-84
2021/10/06 07:51:49;;;;;;;;;1.33;1.00;;;;;15.58;nan;101260.88;4805810;29;45007;-83
2021/10/06 08:08:50;;;;;;;;;2.00;2.00;;;;;15.67;nan;101228.69;4702172;30;45654;-83
2021/10/06 08:47:58;;;;;;;;;4.00;2.67;;;;;16.58;nan;101279.66;4831158;29;46112;-83
2021/10/06 08:50:27;;;;;;;;;0.67;0.67;;;;;16.57;nan;101302.06;4831981;29;45598;-82
2021/10/06 09:05:39;;;;;;;;;2.00;2.00;;;;;16.91;nan;101289.47;4775761;29;45504;-84
2021/10/06 09:14:30;;;;;;;;;5.00;4.00;;;;;17.11;nan;101316.28;4766704;29;45521;-82
2021/10/06 09:21:05;;;;;;;;;;;;;;;;;;;;;
2021/10/06 09:23:59;;;;;;;;;1.25;1.25;;;;;17.34;nan;101301.84;4780602;29;44858;-84
2021/10/06 09:40:41;;;;;;;;;;;;;;;;;;;;;
2021/10/06 09:47:35;;;;;;;;;4.00;2.00;;;;;17.75;nan;101307.00;4735889;29;45970;-84
2021/10/06 09:50:30;;;;;;;;;1.33;1.33;;;;;17.71;nan;101299.81;4729359;30;45493;-82
2021/10/06 09:53:26;;;;;;;;;1.75;0.75;;;;;18.05;nan;101340.00;4728027;30;46112;-84
2021/10/06 09:56:24;;;;;;;;;5.00;4.00;;;;;18.17;nan;101342.59;4729014;30;45523;-82
2021/10/06 09:59:14;;;;;;;;;1.75;1.75;;;;;18.30;nan;101319.19;4741757;30;45481;-83
2021/10/06 10:05:36;;;;;;;;;0.50;0.50;;;;;18.73;nan;101342.13;4715593;30;44916;-82
2021/10/06 10:11:51;;;;;;;;;;;;;;;;;;;;;
2021/10/06 10:21:31;;;;;;;;;;;;;;;;;;;;;
2021/10/06 10:24:21;;;;;;;;;3.00;3.00;;;;;18.69;nan;101314.31;4640469;30;67142;-83
2021/10/06 10:27:11;;;;;;;;;5.00;1.33;;;;;18.79;nan;101358.25;4702934;30;45024;-86
2021/10/06 10:30:48;;;;;;;;;2.00;2.00;;;;;18.86;nan;101365.34;4694877;30;46385;-84
2021/10/06 10:36:32;;;;;;;;;2.00;2.00;;;;;18.98;nan;101356.25;4777709;29;45440;-82
2021/10/06 10:39:50;;;;;;;;;0.50;0.50;;;;;19.02;nan;101349.91;4785101;29;45500;-84
2021/10/06 10:42:19;;;;;;;;;3.00;2.00;;;;;18.90;nan;101371.63;4777807;29;45562;-83
2021/10/06 10:44:51;;;;;;;;;2.00;2.00;;;;;18.74;nan;101331.34;4862660;29;45391;-83
2021/10/06 10:47:23;;;;;;;;;2.00;1.00;;;;;18.97;nan;101366.16;4847055;29;44825;-83
2021/10/06 10:50:01;;;;;;;;;3.00;3.00;;;;;18.80;nan;101327.69;4864959;29;44986;-84
2021/10/06 10:52:52;;;;;;;;;1.33;1.33;;;;;18.98;nan;101375.13;4833720;29;45270;-83
2021/10/06 10:56:10;;;;;;;;;;;;;;;;;;;;;
2021/10/06 11:09:17;;;;;;;;;2.00;2.00;;;;;18.98;nan;101364.34;4856955;29;44978;-81
2021/10/06 11:11:55;;;;;;;;;4.67;3.33;;;;;19.00;nan;101354.44;4846685;29;44872;-85
2021/10/06 11:20:05;;;;;;;;;2.00;2.00;;;;;18.88;nan;101377.00;5741717;23;46384;-83
2021/10/06 11:22:53;;;;;;;;;3.33;2.33;;;;;18.93;nan;101382.38;4818392;29;44881;-83
2021/10/06 11:25:19;;;;;;;;;4.00;2.33;;;;;18.65;nan;101338.63;4808124;29;45341;-81
2021/10/06 11:34:29;;;;;;;;;2.33;2.33;;;;;19.08;nan;101333.66;4781840;29;44756;-82
2021/10/06 11:36:55;;;;;;;;;3.67;3.67;;;;;19.23;nan;101359.59;4792349;29;45521;-84
2021/10/06 11:40:19;;;;;;;;;3.00;3.00;;;;;19.29;nan;101331.63;4784503;29;47136;-83
2021/10/06 11:43:21;;;;;;;;;2.33;2.33;;;;;19.25;nan;101373.03;4677258;30;44879;-84
2021/10/06 11:45:55;;;;;;;;;1.00;1.00;;;;;19.06;nan;101362.44;4675003;30;45351;-84
2021/10/06 11:49:12;;;;;;;;;1.33;1.33;;;;;19.10;nan;101384.88;4677045;30;45031;-84
2021/10/06 11:52:24;;;;;;;;;1.67;1.00;;;;;18.97;nan;101393.09;4635682;30;45682;-86
2021/10/06 11:55:55;;;;;;;;;;;;;;;;;;;;;
2021/10/06 11:58:32;;;;;;;;;3.67;1.00;;;;;18.80;nan;101349.25;4632132;30;68091;-84
2021/10/06 12:01:05;;;;;;;;;0.00;0.00;;;;;18.80;nan;101343.88;4609222;30;45496;-85
2021/10/06 12:03:51;;;;;;;;;2.00;2.00;;;;;19.23;nan;101380.25;4636691;30;46836;-85
2021/10/06 12:06:33;;;;;;;;;2.33;2.33;;;;;19.16;nan;101353.34;4659381;30;44847;-85
2021/10/06 12:09:11;;;;;;;;;3.00;1.00;;;;;19.16;nan;101376.72;4741855;30;44796;-85
2021/10/06 12:12:32;;;;;;;;;2.00;2.00;;;;;19.66;nan;101377.91;4737841;30;45009;-83
2021/10/06 12:15:30;;;;;;;;;2.00;2.00;;;;;19.50;nan;101357.44;4754679;29;46133;-85
2021/10/06 12:18:06;;;;;;;;;3.00;1.00;;;;;19.61;nan;101355.47;4737074;29;44993;-84
2021/10/06 12:42:20;;;;;;;;;1.00;1.00;;;;;19.13;nan;101414.53;4855418;29;45762;-83
2021/10/06 12:44:50;;;;;;;;;1.00;1.00;;;;;19.06;nan;101402.00;4853429;29;44908;-84
2021/10/06 12:47:21;;;;;;;;;1.25;1.00;;;;;19.05;nan;101409.22;4855341;29;45363;-83
2021/10/06 12:54:01;;;;;;;;;;;;;;;;;;;;;
2021/10/06 12:57:21;;;;;;;;;;;;;;;;;;;;;
2021/10/06 12:59:56;;;;;;;;;0.00;0.00;;;;;19.27;nan;101391.00;4833494;29;67503;-82
2021/10/06 13:05:42;;;;;;;;;1.00;1.00;;;;;19.30;nan;101396.34;4840333;29;45511;-82
2021/10/06 13:08:33;;;;;;;;;1.75;1.75;;;;;19.33;nan;101419.69;4828938;29;45879;-82
2021/10/06 13:11:10;;;;;;;;;0.00;0.00;;;;;19.32;nan;101401.72;4834657;29;45611;-83
2021/10/06 13:13:38;;;;;;;;;2.00;1.00;;;;;19.14;nan;101387.53;4837300;29;45906;-83
2021/10/06 13:16:03;;;;;;;;;0.00;0.00;;;;;19.20;nan;101402.75;4844769;29;46320;-81
2021/10/06 13:18:39;;;;;;;;;0.25;0.25;;;;;19.31;nan;101387.34;4819075;29;45373;-81
2021/10/06 13:21:35;;;;;;;;;;;;;;;;;;;;;
2021/10/06 13:24:37;;;;;;;;;0.00;0.00;;;;;19.23;nan;101375.75;4834335;29;65865;-82
2021/10/06 13:27:22;;;;;;;;;0.00;0.00;;;;;19.26;nan;101378.41;4817895;29;45608;-82
2021/10/06 13:30:12;;;;;;;;;0.00;0.00;;;;;19.07;nan;101395.72;4871660;29;45684;-80
2021/10/06 13:32:58;;;;;;;;;0.75;0.75;;;;;19.28;nan;101435.03;4853109;29;44832;-81
2021/10/06 13:36:19;;;;;;;;;0.75;0.75;;;;;19.53;nan;101438.31;4877369;29;45459;-82
2021/10/06 13:39:01;;;;;;;;;0.00;0.00;;;;;19.54;nan;101421.25;4892208;29;46692;-82
2021/10/06 13:41:46;;;;;;;;;1.00;1.00;;;;;19.61;nan;101413.97;4890915;29;45288;-83
2021/10/06 13:44:11;;;;;;;;;0.00;0.00;;;;;19.63;nan;101423.81;4866547;29;45538;-83
2021/10/06 13:50:13;;;;;;;;;0.75;0.00;;;;;19.82;nan;101442.53;4811892;29;46012;-82
2021/10/06 13:52:42;;;;;;;;;1.75;1.00;;;;;19.81;nan;101438.03;4820110;29;44910;-82
2021/10/06 13:55:41;;;;;;;;;;;;;;;;;;;;;
2021/10/06 13:58:43;;;;;;;;;1.25;0.75;;;;;19.93;nan;101445.97;4891394;29;64821;-83
2021/10/06 14:01:11;;;;;;;;;0.00;0.00;;;;;19.85;nan;101435.25;4877538;29;47286;-82
2021/10/06 14:03:38;;;;;;;;;0.00;0.00;;;;;19.81;nan;101449.72;4897230;29;45535;-83
2021/10/06 14:06:04;;;;;;;;;0.00;0.00;;;;;19.87;nan;101446.94;4891391;29;45462;-82
2021/10/06 14:08:30;;;;;;;;;0.00;0.00;;;;;19.74;nan;101427.31;4898015;29;45508;-81
2021/10/06 14:10:56;;;;;;;;;0.00;0.00;;;;;19.89;nan;101446.91;4887899;29;46143;-80
2021/10/06 14:13:21;;;;;;;;;1.25;1.00;;;;;19.72;nan;101441.75;4888325;29;45543;-81
2021/10/06 14:15:53;;;;;;;;;0.75;0.75;;;;;19.85;nan;101446.06;4892139;29;45645;-82
2021/10/06 14:18:25;;;;;;;;;0.25;0.25;;;;;19.38;nan;101404.34;4873823;29;45540;-81
2021/10/06 14:20:52;;;;;;;;;1.00;1.00;;;;;19.43;nan;101442.03;4895276;29;46724;-79
2021/10/06 14:23:20;;;;;;;;;0.00;0.00;;;;;19.34;nan;101445.75;4889266;29;45493;-80
2021/10/06 14:25:47;;;;;;;;;0.00;0.00;;;;;19.25;nan;101464.72;4888451;29;45505;-79
2021/10/06 14:28:13;;;;;;;;;0.00;0.00;;;;;19.22;nan;101462.06;4872130;29;45377;-80
2021/10/06 14:30:46;;;;;;;;;0.00;0.00;;;;;19.26;nan;101434.16;4874175;29;46642;-79
2021/10/06 14:33:12;;;;;;;;;1.50;1.00;;;;;19.21;nan;101457.56;4871321;29;45582;-80
2021/10/06 14:35:37;;;;;;;;;1.00;1.00;;;;;19.27;nan;101460.19;4891532;29;45560;-81
2021/10/06 14:38:07;;;;;;;;;0.00;0.00;;;;;19.41;nan;101481.63;4890008;29;45618;-78
2021/10/06 14:40:33;;;;;;;;;0.00;0.00;;;;;19.48;nan;101451.88;4894320;29;45464;-81
2021/10/06 14:43:07;;;;;;;;;0.00;0.00;;;;;19.44;nan;101455.53;4888898;29;45531;-80
2021/10/06 14:45:40;;;;;;;;;1.00;1.00;;;;;19.35;nan;101424.16;4890093;29;45628;-80
2021/10/06 14:48:06;;;;;;;;;1.50;1.50;;;;;19.59;nan;101468.84;4884931;29;45239;-80
2021/10/06 14:54:17;;;;;;;;;1.00;1.00;;;;;19.74;nan;101454.31;4807557;29;45071;-81
2021/10/06 14:56:43;;;;;;;;;1.25;0.50;;;;;19.48;nan;101445.59;4811118;29;45451;-81
2021/10/06 14:59:19;;;;;;;;;;;;;;;;;;;;;
2021/10/06 15:01:48;;;;;;;;;0.50;0.50;;;;;19.63;nan;101471.50;4816478;29;74449;-81
2021/10/06 15:07:50;;;;;;;;;4.00;0.25;;;;;19.76;nan;101462.38;4820204;29;45639;-81
2021/10/06 15:10:37;;;;;;;;;1.00;1.00;;;;;19.80;nan;101479.44;4808566;29;45417;-80
2021/10/06 15:13:09;;;;;;;;;0.75;0.75;;;;;19.53;nan;101449.13;4822424;29;45510;-80
2021/10/06 15:19:27;;;;;;;;;;;;;;;;;;;;;
2021/10/06 15:22:20;;;;;;;;;1.00;1.00;;;;;19.34;nan;101438.53;4796844;29;65814;-80
2021/10/06 15:25:02;;;;;;;;;1.00;0.00;;;;;19.38;nan;101451.09;4780504;29;45437;-80
2021/10/06 15:27:28;;;;;;;;;2.00;1.00;;;;;19.43;nan;101485.22;4776219;29;45948;-79
2021/10/06 15:29:53;;;;;;;;;1.00;1.00;;;;;19.28;nan;101492.56;4785973;29;45454;-80
2021/10/06 15:32:27;;;;;;;;;1.00;0.00;;;;;19.25;nan;101467.41;4819146;29;45455;-81
2021/10/06 15:35:05;;;;;;;;;;;;;;;;;;;;;
2021/10/06 15:37:32;;;;;;;;;2.25;0.00;;;;;19.08;nan;101464.88;4815125;29;72143;-79
2021/10/06 15:39:58;;;;;;;;;0.00;0.00;;;;;19.03;nan;101483.81;4800861;29;45276;-82
2021/10/06 15:42:24;;;;;;;;;1.25;1.00;;;;;18.85;nan;101474.09;4810682;29;45505;-82
2021/10/06 15:44:50;;;;;;;;;2.00;2.00;;;;;18.88;nan;101495.59;4813892;29;46921;-83
2021/10/06 15:47:20;;;;;;;;;1.75;1.75;;;;;18.68;nan;101463.38;4816959;29;45916;-80
2021/10/06 15:49:49;;;;;;;;;1.00;1.00;;;;;19.03;nan;101501.78;4816208;29;45303;-80
2021/10/06 15:52:18;;;;;;;;;3.50;3.00;;;;;18.81;nan;101458.84;4817546;29;44761;-81
2021/10/06 15:54:45;;;;;;;;;1.75;1.75;;;;;18.77;nan;101479.50;4822281;29;47167;-82
2021/10/06 15:57:11;;;;;;;;;1.00;1.00;;;;;18.90;nan;101503.69;4881607;29;45553;-83
2021/10/06 15:59:44;;;;;;;;;1.00;1.00;;;;;19.10;nan;101503.53;4858231;29;45418;-83
2021/10/06 16:02:29;;;;;;;;;1.75;1.75;;;;;18.99;nan;101468.59;4868927;29;45445;-84
2021/10/06 16:05:09;;;;;;;;;1.75;1.75;;;;;19.13;nan;101511.59;4845129;29;46746;-84
2021/10/06 16:07:34;;;;;;;;;1.00;1.00;;;;;18.88;nan;101494.72;4858808;29;45477;-83
2021/10/06 16:10:00;;;;;;;;;1.67;1.67;;;;;18.93;nan;101509.06;4852661;29;44827;-82
2021/10/06 16:12:29;;;;;;;;;2.00;0.67;;;;;18.90;nan;101493.78;4871241;29;45793;-83
2021/10/06 16:14:56;;;;;;;;;3.00;1.00;;;;;18.93;nan;101533.31;4874870;29;46162;-83
2021/10/06 16:17:26;;;;;;;;;1.33;1.33;;;;;18.94;nan;101503.63;4855104;29;45377;-83
2021/10/06 16:19:55;;;;;;;;;1.67;1.67;;;;;18.86;nan;101515.41;4857494;29;45565;-83
2021/10/06 16:22:29;;;;;;;;;1.67;1.67;;;;;19.06;nan;101534.13;4873544;29;45401;-83